createdAt,value
2018-12-09T00:01:27.126Z,282.17
2018-12-09T00:03:34.086Z,282.17
2018-12-09T00:05:41.025Z,294.97
2018-12-09T00:07:47.862Z,290.13
2018-12-09T00:09:54.734Z,285.40
2018-12-09T00:12:01.358Z,293.00
2018-12-09T00:14:08.818Z,286.67
2018-12-09T00:16:16.355Z,278.07
2018-12-09T00:18:23.271Z,285.80
2018-12-09T00:20:30.948Z,278.50
2018-12-09T00:22:38.903Z,289.13
2018-12-09T00:24:45.922Z,280.33
2018-12-09T00:26:52.610Z,276.93
2018-12-09T00:28:59.742Z,277.33
2018-12-09T00:31:06.501Z,280.63
2018-12-09T00:33:13.453Z,265.10
2018-12-09T00:35:20.150Z,263.50
2018-12-09T00:37:27.049Z,256.37
2018-12-09T00:39:33.865Z,260.27
2018-12-09T00:41:40.635Z,247.27
2018-12-09T00:43:47.770Z,254.73
2018-12-09T00:45:54.552Z,243.83
2018-12-09T00:48:01.492Z,245.90
2018-12-09T00:50:08.830Z,241.10
2018-12-09T00:52:15.747Z,242.17
2018-12-09T00:54:22.636Z,248.43
2018-12-09T00:56:29.591Z,247.43
2018-12-09T00:58:36.392Z,243.13
2018-12-09T01:00:43.512Z,234.27
2018-12-09T01:02:50.659Z,247.33
2018-12-09T01:04:57.807Z,254.57
2018-12-09T01:07:04.819Z,253.33
2018-12-09T01:09:11.526Z,256.27
2018-12-09T01:11:18.888Z,260.33
2018-12-09T01:13:26.480Z,258.43
2018-12-09T01:15:33.298Z,262.77
2018-12-09T01:17:40.389Z,261.97
2018-12-09T01:19:47.154Z,258.07
2018-12-09T01:21:55.154Z,250.97
2018-12-09T01:24:01.977Z,256.67
2018-12-09T01:26:09.184Z,241.13
2018-12-09T01:28:15.890Z,242.77
2018-12-09T01:30:22.646Z,231.30
2018-12-09T01:32:29.726Z,245.33
2018-12-09T01:34:36.515Z,244.20
2018-12-09T01:36:43.430Z,235.77
2018-12-09T01:38:50.226Z,232.90
2018-12-09T01:40:57.612Z,224.77
2018-12-09T01:43:04.309Z,224.97
2018-12-09T01:45:11.423Z,221.43
2018-12-09T01:47:18.481Z,226.00
2018-12-09T01:49:25.553Z,222.47
2018-12-09T01:51:32.961Z,223.90
2018-12-09T01:54:43.193Z,217.67
2018-12-09T01:56:50.506Z,225.77
2018-12-09T01:58:57.351Z,216.43
2018-12-09T02:01:04.285Z,215.50
2018-12-09T02:03:11.058Z,214.57
2018-12-09T02:05:18.114Z,210.27
2018-12-09T02:07:25.074Z,211.20
2018-12-09T02:09:32.655Z,219.20
2018-12-09T02:11:40.296Z,209.17
2018-12-09T02:13:47.279Z,219.73
2018-12-09T02:15:54.221Z,218.57
2018-12-09T02:18:01.082Z,213.00
2018-12-09T02:20:09.106Z,216.37
2018-12-09T02:22:16.004Z,213.70
2018-12-09T02:24:23.094Z,214.90
2018-12-09T02:26:30.130Z,216.23
2018-12-09T02:28:37.038Z,215.53
2018-12-09T02:30:43.764Z,214.13
2018-12-09T02:32:51.076Z,203.67
2018-12-09T02:34:58.183Z,211.37
2018-12-09T02:37:04.881Z,204.10
2018-12-09T02:39:12.991Z,205.30
2018-12-09T02:41:19.701Z,204.93
2018-12-09T02:43:26.705Z,204.03
2018-12-09T02:45:34.267Z,203.30
2018-12-09T02:47:41.104Z,197.07
2018-12-09T02:49:47.993Z,194.60
2018-12-09T02:51:55.081Z,194.33
2018-12-09T02:54:02.473Z,195.87
2018-12-09T02:56:09.296Z,192.77
2018-12-09T02:58:16.266Z,177.93
2018-12-09T03:00:23.160Z,169.23
2018-12-09T03:02:30.629Z,171.20
2018-12-09T03:04:37.672Z,168.07
2018-12-09T03:06:44.624Z,166.93
2018-12-09T03:08:51.821Z,167.93
2018-12-09T03:10:58.619Z,164.57
2018-12-09T03:13:05.592Z,172.03
2018-12-09T03:15:12.717Z,169.43
2018-12-09T03:17:19.946Z,165.77
2018-12-09T03:19:27.096Z,141.67
2018-12-09T03:21:35.066Z,140.30
2018-12-09T03:23:42.051Z,131.90
2018-12-09T03:25:49.236Z,134.60
2018-12-09T03:27:55.862Z,126.57
2018-12-09T03:30:03.225Z,128.40
2018-12-09T03:32:10.340Z,121.87
2018-12-09T03:34:17.339Z,150.30
2018-12-09T03:36:24.453Z,139.40
2018-12-09T03:38:31.637Z,142.97
2018-12-09T03:40:38.735Z,146.40
2018-12-09T03:42:45.741Z,149.33
2018-12-09T03:44:53.260Z,154.17
2018-12-09T03:47:00.913Z,145.30
2018-12-09T03:49:07.782Z,143.77
2018-12-09T03:51:14.845Z,139.00
2018-12-09T03:53:22.016Z,142.20
2018-12-09T03:55:28.899Z,141.20
2018-12-09T03:57:35.572Z,144.93
2018-12-09T03:59:42.437Z,148.63
2018-12-09T04:01:49.321Z,159.50
2018-12-09T04:03:56.633Z,152.30
2018-12-09T04:06:03.392Z,137.97
2018-12-09T04:08:10.366Z,128.43
2018-12-09T04:10:17.146Z,135.63
2018-12-09T04:12:24.023Z,123.83
2018-12-09T04:14:31.410Z,118.87
2018-12-09T04:16:38.703Z,116.40
2018-12-09T04:18:45.483Z,126.17
2018-12-09T04:20:52.325Z,131.27
2018-12-09T04:22:59.004Z,151.77
2018-12-09T04:25:06.337Z,144.20
2018-12-09T04:27:13.230Z,146.03
2018-12-09T04:29:20.292Z,146.43
2018-12-09T04:31:27.154Z,149.77
2018-12-09T14:44:55.758Z,132.37
2018-12-09T14:47:02.657Z,136.37
2018-12-09T14:49:10.401Z,135.13
2018-12-09T14:51:17.918Z,143.17
2018-12-09T14:53:24.768Z,140.03
2018-12-09T14:55:31.606Z,139.77
2018-12-09T14:57:38.461Z,144.13
2018-12-09T14:59:45.502Z,138.07
2018-12-09T15:01:52.610Z,137.30
2018-12-09T15:03:59.997Z,123.33
2018-12-09T15:06:07.222Z,113.10
2018-12-09T15:08:14.278Z,111.03
2018-12-09T15:10:21.262Z,104.97
2018-12-09T15:12:29.337Z,104.57
2018-12-09T15:14:36.482Z,102.07
2018-12-09T15:16:43.286Z,102.20
2018-12-09T15:18:50.695Z,98.63
2018-12-09T15:20:57.417Z,97.47
2018-12-09T15:23:04.201Z,121.77
2018-12-09T15:40:37.897Z,106.73
2018-12-09T15:42:44.606Z,100.73
2018-12-09T15:44:51.748Z,97.27
2018-12-09T15:46:58.687Z,97.90
2018-12-09T15:49:05.726Z,96.97
2018-12-09T15:51:12.869Z,96.50
2018-12-09T15:53:19.534Z,96.13
2018-12-09T15:55:26.397Z,97.73
2018-12-09T15:57:33.162Z,94.97
2018-12-09T15:59:40.143Z,96.83
2018-12-09T16:01:46.946Z,99.17
2018-12-09T16:03:53.775Z,118.40
2018-12-09T16:06:00.616Z,123.10
2018-12-09T16:08:07.740Z,123.77
2018-12-09T16:10:14.795Z,122.40
2018-12-09T16:12:21.742Z,120.03
2018-12-09T16:14:28.500Z,113.20
2018-12-09T16:16:35.465Z,108.37
2018-12-09T16:18:42.528Z,118.47
2018-12-09T16:20:49.590Z,120.83
2018-12-09T16:22:56.438Z,117.07
2018-12-09T16:25:03.329Z,120.80
2018-12-09T16:27:10.428Z,118.50
2018-12-09T16:29:17.974Z,115.70
2018-12-09T16:31:25.107Z,107.10
2018-12-09T16:33:32.261Z,103.10
2018-12-09T16:35:39.170Z,93.00
2018-12-09T16:37:46.115Z,95.97
2018-12-09T16:39:52.853Z,101.63
2018-12-09T16:41:59.613Z,104.27
2018-12-09T16:44:06.968Z,119.17
2018-12-09T16:46:14.074Z,116.40
2018-12-09T16:48:20.988Z,114.63
2018-12-09T16:50:28.133Z,110.63
2018-12-09T16:52:35.069Z,114.33
2018-12-09T16:54:42.005Z,122.33
2018-12-09T16:56:48.871Z,121.47
2018-12-09T16:58:55.784Z,119.90
2018-12-09T17:01:02.582Z,123.37
2018-12-09T17:03:09.449Z,122.77
2018-12-09T17:05:16.533Z,114.73
2018-12-09T17:07:23.622Z,126.37
2018-12-09T17:09:30.629Z,125.07
2018-12-09T17:11:37.494Z,127.20
2018-12-09T17:13:44.483Z,119.47
2018-12-09T17:15:51.480Z,118.80
2018-12-09T17:17:58.174Z,121.70
2018-12-09T17:20:06.399Z,123.07
2018-12-09T17:22:14.530Z,124.10
2018-12-09T17:24:21.680Z,124.77
2018-12-09T17:26:28.680Z,123.97
2018-12-09T17:28:36.132Z,118.83
2018-12-09T17:30:42.864Z,117.40
2018-12-09T17:32:49.670Z,106.33
2018-12-09T17:34:56.860Z,102.53
2018-12-09T17:37:03.611Z,96.73
2018-12-09T17:39:10.609Z,92.97
2018-12-09T17:41:24.757Z,90.00
2018-12-09T17:43:26.185Z,119.43
2018-12-09T17:45:32.864Z,106.90
2018-12-09T17:47:39.717Z,107.57
2018-12-09T17:49:46.407Z,115.10
2018-12-09T17:51:53.003Z,116.73
2018-12-09T17:53:59.649Z,120.10
2018-12-09T17:56:06.441Z,115.37
2018-12-09T17:58:13.293Z,116.40
2018-12-09T18:00:20.167Z,123.97
2018-12-09T18:02:26.934Z,114.07
2018-12-09T18:04:33.949Z,121.20
2018-12-09T18:06:41.065Z,117.00
2018-12-09T18:08:48.012Z,124.10
2018-12-09T18:10:55.357Z,116.77
2018-12-09T18:13:02.164Z,120.90
2018-12-09T18:15:12.701Z,131.30
2018-12-09T18:17:19.512Z,121.00
2018-12-09T18:19:26.525Z,131.77
2018-12-09T18:21:33.465Z,120.77
2018-12-09T18:23:40.596Z,130.07
2018-12-09T18:25:47.353Z,129.83
2018-12-09T18:27:54.193Z,123.27
2018-12-09T18:30:01.109Z,126.13
2018-12-09T18:32:08.066Z,124.60
2018-12-09T18:34:14.923Z,119.00
2018-12-09T18:36:21.955Z,112.93
2018-12-09T18:38:29.422Z,106.63
2018-12-09T18:40:36.207Z,102.33
2018-12-09T18:42:42.886Z,105.60
2018-12-09T18:44:49.886Z,105.90
2018-12-09T18:46:56.829Z,126.63
2018-12-09T18:49:03.705Z,128.43
2018-12-09T18:51:10.645Z,126.90
2018-12-09T18:53:17.641Z,125.37
2018-12-09T18:55:24.507Z,130.70
2018-12-09T18:57:31.497Z,126.33
2018-12-09T18:59:38.214Z,127.77
2018-12-09T19:01:45.263Z,124.93
2018-12-09T19:03:51.955Z,129.37
2018-12-09T19:05:58.791Z,131.77
2018-12-09T19:08:05.831Z,129.17
2018-12-09T19:10:12.722Z,136.67
2018-12-09T19:12:19.744Z,129.80
2018-12-09T19:14:26.641Z,135.27
2018-12-09T19:16:33.301Z,131.47
2018-12-09T19:18:39.994Z,136.60
2018-12-09T19:20:46.600Z,135.73
2018-12-09T19:22:53.454Z,140.80
2018-12-09T19:25:00.289Z,136.73
2018-12-09T19:27:07.245Z,134.80
2018-12-09T19:29:14.006Z,133.23
2018-12-09T19:31:20.653Z,132.27
2018-12-09T19:33:27.493Z,132.17
2018-12-09T19:35:34.302Z,132.47
2018-12-09T19:37:41.198Z,127.30
2018-12-09T19:39:48.044Z,121.27
2018-12-09T19:41:54.996Z,110.47
2018-12-09T19:44:01.679Z,112.37
2018-12-09T19:46:08.378Z,110.47
2018-12-09T19:48:15.078Z,106.17
2018-12-09T19:50:21.873Z,107.87
2018-12-09T19:52:28.907Z,106.30
2018-12-09T19:54:35.815Z,117.03
2018-12-09T19:56:42.652Z,122.47
2018-12-09T19:58:49.520Z,127.27
2018-12-09T20:00:56.458Z,135.90
2018-12-09T20:03:04.010Z,129.47
2018-12-09T20:05:12.033Z,133.77
2018-12-09T20:07:18.776Z,131.70
2018-12-09T20:09:25.777Z,133.87
2018-12-09T20:11:32.529Z,140.43
2018-12-09T20:13:39.200Z,137.77
2018-12-09T20:15:46.106Z,137.87
2018-12-09T20:17:52.820Z,138.63
2018-12-09T20:19:59.595Z,141.13
2018-12-09T20:22:06.630Z,142.30
2018-12-09T20:24:13.638Z,144.23
2018-12-09T20:26:20.690Z,144.13
2018-12-09T20:28:28.939Z,138.37
2018-12-09T20:30:35.702Z,136.00
2018-12-09T20:32:42.477Z,137.83
2018-12-09T20:34:49.453Z,142.80
2018-12-09T20:36:56.334Z,142.33
2018-12-09T20:39:03.458Z,116.73
2018-12-09T20:41:10.090Z,97.93
2018-12-09T20:43:17.134Z,97.40
2018-12-09T20:45:24.750Z,94.87
2018-12-09T20:47:31.714Z,102.43
2018-12-09T20:49:38.031Z,111.97
2018-12-09T20:51:45.006Z,113.07
2018-12-09T20:53:51.743Z,125.57
2018-12-09T20:55:58.850Z,130.43
2018-12-09T20:58:06.097Z,131.17
2018-12-09T21:00:13.263Z,127.40
2018-12-09T21:02:20.199Z,133.80
2018-12-09T21:04:27.394Z,131.80
2018-12-09T21:06:34.177Z,135.10
2018-12-09T21:08:41.080Z,138.00
2018-12-09T21:10:47.910Z,138.30
2018-12-09T21:12:55.126Z,143.50
2018-12-09T21:15:02.058Z,140.93
2018-12-09T21:17:08.920Z,141.73
2018-12-09T21:19:16.008Z,143.57
2018-12-09T21:21:22.837Z,143.37
2018-12-09T21:23:29.756Z,149.43
2018-12-09T21:25:36.632Z,144.27
2018-12-09T21:27:43.679Z,144.50
2018-12-09T21:29:50.450Z,144.37
2018-12-09T21:31:57.454Z,141.57
2018-12-09T21:34:04.489Z,145.87
2018-12-09T21:36:11.454Z,147.50
2018-12-09T21:38:18.200Z,142.90
2018-12-09T21:40:25.122Z,147.10
2018-12-09T21:42:31.922Z,148.47
2018-12-09T21:44:38.960Z,146.67
2018-12-09T21:46:46.021Z,143.63
2018-12-09T21:48:52.802Z,146.97
2018-12-09T21:50:59.627Z,143.03
2018-12-09T21:53:06.521Z,152.83
2018-12-09T21:55:13.389Z,153.10
2018-12-09T21:57:20.185Z,151.03
2018-12-09T21:59:27.010Z,149.90
2018-12-09T22:01:34.200Z,155.23
2018-12-09T22:03:40.779Z,155.60
2018-12-09T22:05:47.662Z,157.30
2018-12-09T22:07:54.606Z,153.87
2018-12-09T22:10:01.330Z,155.57
2018-12-09T22:12:08.018Z,157.53
2018-12-09T22:14:15.063Z,154.40
2018-12-09T22:16:21.990Z,154.33
2018-12-09T22:18:28.908Z,154.60
2018-12-09T22:20:35.897Z,153.30
2018-12-09T22:22:42.974Z,152.40
2018-12-09T22:24:49.596Z,154.37
2018-12-09T22:26:56.646Z,149.97
2018-12-09T22:29:03.525Z,150.57
2018-12-09T22:31:10.194Z,153.20
2018-12-09T22:33:16.822Z,156.50
2018-12-09T22:35:23.894Z,156.90
2018-12-09T22:37:30.870Z,157.60
2018-12-09T22:39:37.790Z,153.03
2018-12-09T22:41:44.770Z,157.10
2018-12-09T22:43:51.582Z,156.87
2018-12-09T22:45:58.494Z,154.33
2018-12-09T22:48:05.684Z,159.40
2018-12-09T22:50:12.515Z,156.90
2018-12-09T22:52:19.848Z,161.20
2018-12-09T22:54:26.562Z,156.97
2018-12-09T22:56:33.346Z,160.27
2018-12-09T22:58:39.832Z,157.33
2018-12-09T23:00:53.249Z,161.03
2018-12-09T23:03:06.397Z,159.53
2018-12-09T23:05:13.337Z,162.87
2018-12-09T23:07:24.670Z,160.67
2018-12-09T23:09:31.427Z,166.90
2018-12-09T23:11:38.483Z,161.43
2018-12-09T23:13:45.338Z,161.80
2018-12-09T23:15:52.229Z,167.57
2018-12-09T23:17:59.385Z,163.30
2018-12-09T23:20:06.433Z,166.20
2018-12-09T23:22:13.358Z,158.23
2018-12-09T23:24:20.344Z,166.57
2018-12-09T23:26:27.061Z,157.13
2018-12-09T23:28:33.973Z,160.93
2018-12-09T23:30:40.623Z,157.00
2018-12-09T23:32:47.534Z,160.67
2018-12-09T23:34:54.316Z,163.77
2018-12-09T23:37:01.207Z,160.27
2018-12-09T23:39:08.788Z,160.80
2018-12-09T23:41:16.390Z,162.33
2018-12-09T23:43:23.245Z,166.30
2018-12-09T23:45:30.059Z,167.83
2018-12-09T23:47:37.081Z,167.27
2018-12-09T23:49:43.947Z,161.60
2018-12-09T23:51:50.831Z,167.13
2018-12-09T23:53:57.631Z,164.07
2018-12-09T23:56:04.397Z,165.23
2018-12-09T23:58:11.502Z,164.77
